createdAt,value
2019-03-28T00:04:11.405Z,11.83
2019-03-28T00:09:18.292Z,12.65
2019-03-28T00:14:25.012Z,12.23
2019-03-28T00:19:31.757Z,12.10
2019-03-28T00:24:56.308Z,12.60
2019-03-28T00:30:03.104Z,12.23
2019-03-28T00:35:09.862Z,13.53
2019-03-28T00:40:16.622Z,13.43
2019-03-28T00:45:23.292Z,13.15
2019-03-28T00:50:32.853Z,13.65
2019-03-28T00:55:38.542Z,13.62
2019-03-28T01:00:45.583Z,13.15
2019-03-28T01:05:52.538Z,13.93
2019-03-28T01:10:59.235Z,12.80
2019-03-28T01:16:06.925Z,13.83
2019-03-28T01:21:14.823Z,14.10
2019-03-28T01:26:21.155Z,13.25
2019-03-28T01:31:28.032Z,13.53
2019-03-28T01:36:34.557Z,15.35
2019-03-28T01:41:41.349Z,15.03
2019-03-28T01:46:47.939Z,14.60
2019-03-28T01:51:54.705Z,14.73
2019-03-28T01:57:10.892Z,14.98
2019-03-28T02:02:09.911Z,14.63
2019-03-28T02:07:16.437Z,15.38
2019-03-28T02:12:23.262Z,16.32
2019-03-28T02:17:29.883Z,15.55
2019-03-28T02:22:36.812Z,15.32
2019-03-28T02:27:43.438Z,16.40
2019-03-28T02:32:50.335Z,16.27
2019-03-28T02:37:57.023Z,15.93
2019-03-28T02:43:03.614Z,16.52
2019-03-28T02:48:10.496Z,16.07
2019-03-28T02:53:17.308Z,16.93
2019-03-28T02:58:24.061Z,17.02
2019-03-28T03:03:30.618Z,18.57
2019-03-28T03:08:37.472Z,19.10
2019-03-28T03:13:44.326Z,17.87
2019-03-28T03:18:52.468Z,17.75
2019-03-28T03:23:59.222Z,18.12
2019-03-28T03:29:06.262Z,18.80
2019-03-28T03:34:12.857Z,19.05
2019-03-28T03:39:19.447Z,19.30
2019-03-28T03:44:25.938Z,18.37
2019-03-28T03:49:32.597Z,18.27
2019-03-28T03:54:39.198Z,18.75
2019-03-28T03:59:45.906Z,19.70
2019-03-28T04:04:56.403Z,19.10
2019-03-28T04:10:00.805Z,18.87
2019-03-28T04:15:07.813Z,19.02
2019-03-28T04:20:14.701Z,19.65
2019-03-28T04:25:21.456Z,18.27
2019-03-28T04:30:28.156Z,19.05
2019-03-28T04:35:34.859Z,18.17
2019-03-28T04:40:41.624Z,18.55
2019-03-28T04:45:48.212Z,18.48
2019-03-28T04:50:54.998Z,17.82
2019-03-28T04:56:01.700Z,16.65
2019-03-28T05:01:08.598Z,17.85
2019-03-28T05:06:15.163Z,18.48
2019-03-28T05:11:21.984Z,19.40
2019-03-28T05:16:28.719Z,18.85
2019-03-28T05:21:35.578Z,18.32
2019-03-28T05:26:42.303Z,19.77
2019-03-28T05:31:48.934Z,18.25
2019-03-28T05:36:55.610Z,19.87
2019-03-28T05:42:02.442Z,19.35
2019-03-28T05:47:09.106Z,20.30
2019-03-28T05:52:16.362Z,20.92
2019-03-28T05:57:23.080Z,21.12
2019-03-28T06:02:29.816Z,20.55
2019-03-28T06:07:36.746Z,21.25
2019-03-28T06:12:43.542Z,22.17
2019-03-28T06:17:50.132Z,20.40
2019-03-28T06:22:56.775Z,22.02
2019-03-28T06:28:03.316Z,22.58
2019-03-28T06:33:10.069Z,23.32
2019-03-28T06:38:16.779Z,23.75
2019-03-28T06:43:23.539Z,22.25
2019-03-28T06:48:30.198Z,23.15
2019-03-28T06:53:36.950Z,22.77
2019-03-28T06:58:43.818Z,22.85
2019-03-28T07:03:50.511Z,23.70
2019-03-28T07:08:57.528Z,24.72
2019-03-28T07:14:04.146Z,23.80
2019-03-28T07:19:11.038Z,24.65
2019-03-28T07:24:17.881Z,23.32
2019-03-28T07:29:25.461Z,24.23
2019-03-28T07:34:32.212Z,23.10
2019-03-28T07:39:38.905Z,22.25
2019-03-28T07:44:45.568Z,23.45
2019-03-28T07:49:52.364Z,23.57
2019-03-28T07:54:59.019Z,22.45
2019-03-28T08:00:06.597Z,23.42
2019-03-28T08:05:13.970Z,21.23
2019-03-28T08:10:20.679Z,22.50
2019-03-28T08:15:27.404Z,21.55
2019-03-28T08:20:33.862Z,21.50
2019-03-28T08:25:40.317Z,21.05
2019-03-28T08:30:46.885Z,20.10
2019-03-28T08:35:53.585Z,20.40
2019-03-28T08:41:00.019Z,19.25
2019-03-28T08:46:08.814Z,18.23
2019-03-28T08:51:14.881Z,17.87
2019-03-28T08:56:21.601Z,18.35
2019-03-28T09:01:28.578Z,18.40
2019-03-28T09:06:35.231Z,17.25
2019-03-28T09:11:42.105Z,16.87
2019-03-28T09:16:48.928Z,16.67
2019-03-28T09:21:55.527Z,16.20
2019-03-28T09:27:02.161Z,13.75
2019-03-28T09:32:09.108Z,12.53
2019-03-28T09:37:16.052Z,11.22
2019-03-28T09:42:22.711Z,10.60
2019-03-28T09:47:30.328Z,10.48
2019-03-28T09:52:37.312Z,10.20
2019-03-28T09:57:43.929Z,9.25
2019-03-28T10:02:50.928Z,10.30
2019-03-28T10:07:57.360Z,8.55
2019-03-28T10:13:03.839Z,7.97
2019-03-28T10:18:10.300Z,8.30
2019-03-28T10:23:16.754Z,7.78
2019-03-28T10:28:23.284Z,6.42
2019-03-28T10:33:29.826Z,8.83
2019-03-28T10:38:37.012Z,6.95
2019-03-28T10:43:43.492Z,5.20
2019-03-28T10:48:49.931Z,5.80
2019-03-28T10:53:56.362Z,4.85
2019-03-28T10:59:02.862Z,4.62
2019-03-28T11:04:09.283Z,4.50
2019-03-28T11:09:15.688Z,4.03
2019-03-28T11:14:22.104Z,4.30
2019-03-28T11:19:28.722Z,3.52
2019-03-28T11:24:35.509Z,4.17
2019-03-28T11:29:42.303Z,4.50
2019-03-28T11:34:48.904Z,3.85
2019-03-28T11:39:55.572Z,4.25
2019-03-28T11:45:02.377Z,4.17
2019-03-28T11:50:10.006Z,3.90
2019-03-28T11:55:16.848Z,4.85
2019-03-28T12:00:23.725Z,4.92
2019-03-28T12:05:30.362Z,5.55
2019-03-28T12:10:37.090Z,5.15
2019-03-28T12:15:43.786Z,5.37
2019-03-28T12:20:50.528Z,5.10
2019-03-28T12:25:57.477Z,4.92
2019-03-28T12:31:04.179Z,5.62
2019-03-28T12:36:10.811Z,5.40
2019-03-28T12:41:17.400Z,6.62
2019-03-28T12:46:25.655Z,6.25
2019-03-28T12:51:32.873Z,6.05
2019-03-28T12:56:39.700Z,5.58
2019-03-28T13:01:46.278Z,5.30
2019-03-28T13:06:52.871Z,4.70
2019-03-28T13:11:59.671Z,5.08
2019-03-28T13:17:06.542Z,4.83
2019-03-28T13:22:13.363Z,4.30
2019-03-28T13:27:20.260Z,5.00
2019-03-28T13:32:26.645Z,4.22
2019-03-28T13:37:33.426Z,4.60
2019-03-28T13:42:40.236Z,4.55
2019-03-28T13:47:46.981Z,4.87
2019-03-28T13:52:53.473Z,4.20
2019-03-28T13:58:00.436Z,3.60
2019-03-28T14:03:07.255Z,4.33
2019-03-28T14:08:14.554Z,4.12
2019-03-28T14:13:21.642Z,4.00
2019-03-28T14:18:28.713Z,3.92
2019-03-28T14:23:35.361Z,4.03
2019-03-28T14:28:42.237Z,4.80
2019-03-28T14:33:48.843Z,5.10
2019-03-28T14:38:55.716Z,4.67
2019-03-28T14:44:02.570Z,4.80
2019-03-28T14:49:09.810Z,4.87
2019-03-28T14:54:16.464Z,4.10
2019-03-28T14:59:32.394Z,5.45
2019-03-28T15:04:31.967Z,4.80
2019-03-28T15:09:38.795Z,4.95
2019-03-28T15:14:45.647Z,4.42
2019-03-28T15:19:52.035Z,4.87
2019-03-28T15:24:58.492Z,4.75
2019-03-28T15:30:05.475Z,4.20
2019-03-28T15:35:11.884Z,4.80
2019-03-28T15:40:18.430Z,4.75
2019-03-28T15:45:24.833Z,4.67
2019-03-28T15:50:31.223Z,5.12
2019-03-28T15:55:37.964Z,4.95
2019-03-28T16:00:45.123Z,5.37
2019-03-28T16:05:58.200Z,5.40
2019-03-28T16:11:00.182Z,6.47
2019-03-28T16:16:06.695Z,4.87
2019-03-28T16:21:13.850Z,4.50
2019-03-28T16:26:20.871Z,5.33
2019-03-28T16:31:27.952Z,5.55
2019-03-28T16:36:34.391Z,5.80
2019-03-28T16:41:41.132Z,5.17
2019-03-28T16:46:47.826Z,5.00
2019-03-28T16:51:54.688Z,5.70
2019-03-28T16:57:01.507Z,5.92
2019-03-28T17:02:08.012Z,5.28
2019-03-28T17:07:15.831Z,5.40
2019-03-28T17:12:22.494Z,5.60
2019-03-28T17:17:29.015Z,5.20
2019-03-28T17:22:35.857Z,5.20
2019-03-28T17:27:42.460Z,5.60
2019-03-28T17:32:49.143Z,4.87
2019-03-28T17:37:56.148Z,5.08
2019-03-28T17:43:02.815Z,4.60
2019-03-28T17:48:09.854Z,5.40
2019-03-28T17:53:16.850Z,4.87
2019-03-28T17:58:23.677Z,4.30
2019-03-28T18:03:31.693Z,4.12
2019-03-28T18:08:38.394Z,3.90
2019-03-28T18:13:45.028Z,3.87
2019-03-28T18:18:51.683Z,4.15
2019-03-28T18:23:58.084Z,3.55
2019-03-28T18:29:04.806Z,3.33
2019-03-28T18:34:12.428Z,3.70
2019-03-28T18:39:19.193Z,2.95
2019-03-28T18:44:25.882Z,3.25
2019-03-28T18:49:32.873Z,3.40
2019-03-28T18:54:39.717Z,3.40
2019-03-28T18:59:46.438Z,3.10
2019-03-28T19:04:53.129Z,3.85
2019-03-28T19:10:00.019Z,3.47
2019-03-28T19:15:08.927Z,3.87
2019-03-28T19:20:17.041Z,3.27
2019-03-28T19:25:24.043Z,3.77
2019-03-28T19:30:32.647Z,3.70
2019-03-28T19:35:42.156Z,3.92
2019-03-28T19:40:48.650Z,3.98
2019-03-28T19:45:56.014Z,4.25
2019-03-28T19:51:02.632Z,3.83
2019-03-28T19:56:09.674Z,4.03
2019-03-28T20:01:16.401Z,3.98
2019-03-28T20:06:24.269Z,4.40
2019-03-28T20:11:32.176Z,4.30
2019-03-28T20:16:38.832Z,4.42
2019-03-28T20:21:45.623Z,4.90
2019-03-28T20:26:54.245Z,5.33
2019-03-28T20:32:00.740Z,4.70
2019-03-28T20:37:07.536Z,4.85
2019-03-28T20:42:16.368Z,4.80
2019-03-28T20:47:23.133Z,4.90
2019-03-28T20:52:30.086Z,4.80
2019-03-28T20:57:40.202Z,6.08
2019-03-28T21:02:45.360Z,5.00
2019-03-28T21:07:52.021Z,5.08
2019-03-28T21:12:58.880Z,6.03
2019-03-28T21:18:05.681Z,5.25
2019-03-28T21:23:12.966Z,5.60
2019-03-28T21:28:19.703Z,5.92
2019-03-28T21:33:26.246Z,6.83
2019-03-28T21:38:33.165Z,6.35
2019-03-28T21:43:40.040Z,6.42
2019-03-28T21:48:46.692Z,6.97
2019-03-28T21:53:53.340Z,6.28
2019-03-28T21:59:00.020Z,6.20
2019-03-28T22:04:06.826Z,7.10
2019-03-28T22:09:13.463Z,6.92
2019-03-28T22:14:20.022Z,6.47
2019-03-28T22:19:26.645Z,6.72
2019-03-28T22:24:33.249Z,6.92
2019-03-28T22:29:39.721Z,6.78
2019-03-28T22:34:46.309Z,5.90
2019-03-28T22:39:53.186Z,6.85
2019-03-28T22:44:59.791Z,7.58
2019-03-28T22:50:07.148Z,6.60
2019-03-28T22:55:14.265Z,6.83
2019-03-28T23:00:45.149Z,8.18
2019-03-28T23:05:51.952Z,7.65
2019-03-28T23:10:58.994Z,7.78
2019-03-28T23:16:06.037Z,7.95
2019-03-28T23:21:12.777Z,7.42
2019-03-28T23:26:19.271Z,8.05
2019-03-28T23:31:25.963Z,7.33
2019-03-28T23:36:32.909Z,7.05
2019-03-28T23:41:39.751Z,8.13
2019-03-28T23:46:46.560Z,8.10
2019-03-28T23:51:53.556Z,7.15
2019-03-28T23:57:00.198Z,7.50
